首页
METAR-TAF:

METAR-TAF

机场 :

加尔各答, 印度

内塔吉·苏巴斯·钱德拉·鲍斯国际机场

纬度: 22-39N, 经度: 088-27E, 海拔: 4米

当前天气观测

该预报发布于23分钟前的03:00 UTC
静风
温度 16°C
湿度 72%
气压 1015 hPa
能見度: 1500
轻雾

METAR: VECC 200300Z 00000KT 1500 BR NSC 16/11 Q1015 NOSIG

时间: 08:53 (03:23 UTC)

预报

该预报发布于4小时和23分钟前的23:00 UTC
预报有效从20日的 00点(UTC)到 21日的 06点(UTC)
风速节,风向
能見度: 0800
成为
从 20日的 03点(UTC)到 20日的 05点(UTC)
风速5节,风向北转东北
能見度: 1800
轻雾
成为
从 20日的 06点(UTC)到 20日的 08点(UTC)
能見度: 3200
成为
从 20日的 13点(UTC)到 20日的 15点(UTC)
风速节,风向
能見度: 2000
轻雾
成为
从 20日的 23点(UTC)到 21日的 01点(UTC)
能見度: 1000
浅雾
成为
从 21日的 03点(UTC)到 21日的 05点(UTC)
风速5节,风向北转东北
能見度: 2500

TAF: VECC 192300Z 2000/2106 00000KT 0800 FG NSC BECMG 2003/2005 02005KT 1800 BR BECMG 2006/2008 3200 HZ BECMG 2013/2015 00000KT 2000 BR BECMG 2023/2101 1000 MIFG BECMG 2103/2105 02005KT 2500 HZ

超过4000个机场的气象观测和天气预报(METAR&TAF报告)。

可查询的气象台以黄色和红色小点在地图上表示。

将鼠标移到小点上方,可查看气象台名称。

然后点击查看天气观测和预报。

如需切换地图:点击带黑十字的绿色按钮放大地图;点击带横线的绿色按钮缩小地图;或者点击绿色箭头查看邻近地区的地图。


METAR-TAF: